sensor_id;sensor_type;location;lat;lon;timestamp;temperature;humidity
15143;DHT22;7672;50.834;6.286;2022-09-06T00:00:17;23.20;99.90
15143;DHT22;7672;50.834;6.286;2022-09-06T00:02:44;22.90;99.90
15143;DHT22;7672;50.834;6.286;2022-09-06T00:05:11;22.90;99.90
15143;DHT22;7672;50.834;6.286;2022-09-06T00:07:39;22.70;99.90
15143;DHT22;7672;50.834;6.286;2022-09-06T00:10:06;22.50;99.90
15143;DHT22;7672;50.834;6.286;2022-09-06T00:12:35;22.40;99.90
15143;DHT22;7672;50.834;6.286;2022-09-06T00:15:03;22.30;99.90
15143;DHT22;7672;50.834;6.286;2022-09-06T00:17:32;22.20;99.90
15143;DHT22;7672;50.834;6.286;2022-09-06T00:20:00;22.10;99.90
15143;DHT22;7672;50.834;6.286;2022-09-06T00:22:27;22.10;99.90
15143;DHT22;7672;50.834;6.286;2022-09-06T00:24:54;22.10;99.90
15143;DHT22;7672;50.834;6.286;2022-09-06T00:27:22;21.20;99.90
15143;DHT22;7672;50.834;6.286;2022-09-06T00:29:49;21.70;99.90
15143;DHT22;7672;50.834;6.286;2022-09-06T00:32:15;22.10;99.90
15143;DHT22;7672;50.834;6.286;2022-09-06T00:34:43;21.70;99.90
15143;DHT22;7672;50.834;6.286;2022-09-06T00:37:10;21.90;99.90
15143;DHT22;7672;50.834;6.286;2022-09-06T00:39:36;21.50;99.90
15143;DHT22;7672;50.834;6.286;2022-09-06T00:42:07;21.50;99.90
15143;DHT22;7672;50.834;6.286;2022-09-06T00:44:36;21.50;99.90
15143;DHT22;7672;50.834;6.286;2022-09-06T00:47:03;21.30;99.90
15143;DHT22;7672;50.834;6.286;2022-09-06T00:49:46;21.30;99.90
15143;DHT22;7672;50.834;6.286;2022-09-06T00:52:17;21.30;99.90
15143;DHT22;7672;50.834;6.286;2022-09-06T00:54:45;21.60;99.90
15143;DHT22;7672;50.834;6.286;2022-09-06T00:57:14;21.20;99.90
15143;DHT22;7672;50.834;6.286;2022-09-06T00:59:45;21.20;99.90
15143;DHT22;7672;50.834;6.286;2022-09-06T01:02:13;21.60;99.90
15143;DHT22;7672;50.834;6.286;2022-09-06T01:04:42;21.50;99.90
15143;DHT22;7672;50.834;6.286;2022-09-06T01:14:12;21.00;99.90
15143;DHT22;7672;50.834;6.286;2022-09-06T01:17:02;21.00;99.90
15143;DHT22;7672;50.834;6.286;2022-09-06T01:28:43;20.90;99.90
15143;DHT22;7672;50.834;6.286;2022-09-06T01:31:33;20.80;99.90
15143;DHT22;7672;50.834;6.286;2022-09-06T01:34:30;20.80;99.90
15143;DHT22;7672;50.834;6.286;2022-09-06T01:37:09;20.70;99.90
15143;DHT22;7672;50.834;6.286;2022-09-06T01:39:45;20.80;99.90
15143;DHT22;7672;50.834;6.286;2022-09-06T01:42:16;20.30;99.90
15143;DHT22;7672;50.834;6.286;2022-09-06T01:45:01;21.20;99.90
15143;DHT22;7672;50.834;6.286;2022-09-06T01:50:46;20.50;99.90
15143;DHT22;7672;50.834;6.286;2022-09-06T01:53:35;20.80;99.90
15143;DHT22;7672;50.834;6.286;2022-09-06T01:56:29;20.40;99.90
15143;DHT22;7672;50.834;6.286;2022-09-06T02:05:17;20.40;99.90
15143;DHT22;7672;50.834;6.286;2022-09-06T02:08:03;19.90;99.90
15143;DHT22;7672;50.834;6.286;2022-09-06T02:10:51;20.20;99.90
15143;DHT22;7672;50.834;6.286;2022-09-06T02:13:24;20.20;99.90
15143;DHT22;7672;50.834;6.286;2022-09-06T02:16:01;20.60;99.90
15143;DHT22;7672;50.834;6.286;2022-09-06T02:18:34;20.10;99.90
15143;DHT22;7672;50.834;6.286;2022-09-06T02:21:05;20.10;99.90
15143;DHT22;7672;50.834;6.286;2022-09-06T02:23:37;20.20;99.90
15143;DHT22;7672;50.834;6.286;2022-09-06T02:26:13;20.00;99.90
15143;DHT22;7672;50.834;6.286;2022-09-06T02:28:43;20.00;99.90
15143;DHT22;7672;50.834;6.286;2022-09-06T02:31:15;20.00;99.90
15143;DHT22;7672;50.834;6.286;2022-09-06T02:33:49;20.40;99.90
15143;DHT22;7672;50.834;6.286;2022-09-06T02:36:18;20.00;99.90
15143;DHT22;7672;50.834;6.286;2022-09-06T02:38:45;20.00;99.90
15143;DHT22;7672;50.834;6.286;2022-09-06T02:41:14;19.80;99.90
15143;DHT22;7672;50.834;6.286;2022-09-06T02:43:43;19.80;99.90
15143;DHT22;7672;50.834;6.286;2022-09-06T02:46:10;19.80;99.90
15143;DHT22;7672;50.834;6.286;2022-09-06T02:48:38;19.90;99.90
15143;DHT22;7672;50.834;6.286;2022-09-06T02:51:06;20.00;99.90
15143;DHT22;7672;50.834;6.286;2022-09-06T02:53:35;19.50;99.90
15143;DHT22;7672;50.834;6.286;2022-09-06T02:56:02;19.90;99.90
15143;DHT22;7672;50.834;6.286;2022-09-06T02:58:29;19.70;99.90
15143;DHT22;7672;50.834;6.286;2022-09-06T03:00:56;20.00;99.90
15143;DHT22;7672;50.834;6.286;2022-09-06T03:03:23;19.60;99.90
15143;DHT22;7672;50.834;6.286;2022-09-06T03:05:51;19.60;99.90
15143;DHT22;7672;50.834;6.286;2022-09-06T03:08:20;19.50;99.90
15143;DHT22;7672;50.834;6.286;2022-09-06T03:10:53;19.50;99.90
15143;DHT22;7672;50.834;6.286;2022-09-06T03:13:22;19.50;99.90
15143;DHT22;7672;50.834;6.286;2022-09-06T03:15:51;19.30;99.90
15143;DHT22;7672;50.834;6.286;2022-09-06T03:18:21;19.50;99.90
15143;DHT22;7672;50.834;6.286;2022-09-06T03:20:50;19.40;99.90
15143;DHT22;7672;50.834;6.286;2022-09-06T03:23:19;19.70;99.90
15143;DHT22;7672;50.834;6.286;2022-09-06T03:25:48;19.40;99.90
15143;DHT22;7672;50.834;6.286;2022-09-06T03:28:15;19.70;99.90
15143;DHT22;7672;50.834;6.286;2022-09-06T03:30:45;19.50;99.90
15143;DHT22;7672;50.834;6.286;2022-09-06T03:33:13;19.30;99.90
15143;DHT22;7672;50.834;6.286;2022-09-06T03:35:47;19.70;99.90
15143;DHT22;7672;50.834;6.286;2022-09-06T03:38:18;19.10;99.90
15143;DHT22;7672;50.834;6.286;2022-09-06T03:40:47;19.10;99.90
15143;DHT22;7672;50.834;6.286;2022-09-06T03:43:16;19.40;99.90
15143;DHT22;7672;50.834;6.286;2022-09-06T03:45:45;19.20;99.90
15143;DHT22;7672;50.834;6.286;2022-09-06T03:48:14;19.00;99.90
15143;DHT22;7672;50.834;6.286;2022-09-06T03:50:44;19.00;99.90
15143;DHT22;7672;50.834;6.286;2022-09-06T03:53:12;19.00;99.90
15143;DHT22;7672;50.834;6.286;2022-09-06T03:55:44;18.70;99.90
15143;DHT22;7672;50.834;6.286;2022-09-06T03:58:12;18.90;99.90
15143;DHT22;7672;50.834;6.286;2022-09-06T04:00:40;19.00;99.90
15143;DHT22;7672;50.834;6.286;2022-09-06T04:03:07;19.10;99.90
15143;DHT22;7672;50.834;6.286;2022-09-06T04:05:34;19.20;99.90
15143;DHT22;7672;50.834;6.286;2022-09-06T04:08:01;18.90;99.90
15143;DHT22;7672;50.834;6.286;2022-09-06T04:10:29;19.00;99.90
15143;DHT22;7672;50.834;6.286;2022-09-06T04:12:56;19.40;99.90
15143;DHT22;7672;50.834;6.286;2022-09-06T04:15:23;18.90;99.90
15143;DHT22;7672;50.834;6.286;2022-09-06T04:17:50;18.90;99.90
15143;DHT22;7672;50.834;6.286;2022-09-06T04:20:16;18.80;99.90
15143;DHT22;7672;50.834;6.286;2022-09-06T04:22:43;18.90;99.90
15143;DHT22;7672;50.834;6.286;2022-09-06T04:25:10;18.80;99.90
15143;DHT22;7672;50.834;6.286;2022-09-06T04:27:39;19.10;99.90
15143;DHT22;7672;50.834;6.286;2022-09-06T04:30:06;19.20;99.90
15143;DHT22;7672;50.834;6.286;2022-09-06T04:32:34;18.80;99.90
15143;DHT22;7672;50.834;6.286;2022-09-06T04:35:01;19.10;99.90
15143;DHT22;7672;50.834;6.286;2022-09-06T04:37:27;18.90;99.90
15143;DHT22;7672;50.834;6.286;2022-09-06T04:39:54;18.60;99.90
15143;DHT22;7672;50.834;6.286;2022-09-06T04:42:21;19.10;99.90
15143;DHT22;7672;50.834;6.286;2022-09-06T04:44:48;19.20;99.90
15143;DHT22;7672;50.834;6.286;2022-09-06T04:47:15;18.90;99.90
15143;DHT22;7672;50.834;6.286;2022-09-06T04:49:44;18.70;99.90
15143;DHT22;7672;50.834;6.286;2022-09-06T04:52:11;18.70;99.90
15143;DHT22;7672;50.834;6.286;2022-09-06T04:54:44;18.70;99.90
15143;DHT22;7672;50.834;6.286;2022-09-06T04:57:11;18.60;99.90
15143;DHT22;7672;50.834;6.286;2022-09-06T04:59:38;18.70;99.90
15143;DHT22;7672;50.834;6.286;2022-09-06T05:02:04;19.00;99.90
15143;DHT22;7672;50.834;6.286;2022-09-06T05:04:31;18.70;99.90
15143;DHT22;7672;50.834;6.286;2022-09-06T05:07:03;19.10;99.90
15143;DHT22;7672;50.834;6.286;2022-09-06T05:09:33;18.70;99.90
15143;DHT22;7672;50.834;6.286;2022-09-06T05:12:00;18.70;99.90
15143;DHT22;7672;50.834;6.286;2022-09-06T05:14:28;18.70;99.90
15143;DHT22;7672;50.834;6.286;2022-09-06T05:17:02;18.90;99.90
15143;DHT22;7672;50.834;6.286;2022-09-06T05:19:50;19.10;99.90
15143;DHT22;7672;50.834;6.286;2022-09-06T05:22:56;19.20;99.90
15143;DHT22;7672;50.834;6.286;2022-09-06T05:26:06;18.70;99.90
15143;DHT22;7672;50.834;6.286;2022-09-06T05:29:12;18.70;99.90
15143;DHT22;7672;50.834;6.286;2022-09-06T05:36:02;18.80;99.90
15143;DHT22;7672;50.834;6.286;2022-09-06T05:39:04;19.10;99.90
15143;DHT22;7672;50.834;6.286;2022-09-06T05:42:04;19.10;99.90
15143;DHT22;7672;50.834;6.286;2022-09-06T05:46:11;19.20;99.90
15143;DHT22;7672;50.834;6.286;2022-09-06T05:49:19;19.40;99.90
15143;DHT22;7672;50.834;6.286;2022-09-06T05:52:34;19.50;99.90
15143;DHT22;7672;50.834;6.286;2022-09-06T05:58:26;19.80;99.90
15143;DHT22;7672;50.834;6.286;2022-09-06T06:04:54;20.10;99.90
15143;DHT22;7672;50.834;6.286;2022-09-06T06:07:24;20.60;99.90
15143;DHT22;7672;50.834;6.286;2022-09-06T06:09:51;20.90;99.90
15143;DHT22;7672;50.834;6.286;2022-09-06T06:12:18;20.90;99.90
15143;DHT22;7672;50.834;6.286;2022-09-06T06:14:45;21.00;99.90
15143;DHT22;7672;50.834;6.286;2022-09-06T06:17:12;21.20;99.90
15143;DHT22;7672;50.834;6.286;2022-09-06T06:19:39;21.00;99.90
15143;DHT22;7672;50.834;6.286;2022-09-06T06:22:06;21.30;99.90
15143;DHT22;7672;50.834;6.286;2022-09-06T06:24:33;21.40;99.90
15143;DHT22;7672;50.834;6.286;2022-09-06T06:27:00;21.60;99.90
15143;DHT22;7672;50.834;6.286;2022-09-06T06:29:26;21.90;99.90
15143;DHT22;7672;50.834;6.286;2022-09-06T06:31:53;22.40;99.90
15143;DHT22;7672;50.834;6.286;2022-09-06T06:34:20;22.30;99.90
15143;DHT22;7672;50.834;6.286;2022-09-06T06:36:49;22.30;99.90
15143;DHT22;7672;50.834;6.286;2022-09-06T06:39:16;22.60;99.90
15143;DHT22;7672;50.834;6.286;2022-09-06T06:41:42;23.20;99.90
15143;DHT22;7672;50.834;6.286;2022-09-06T06:44:09;23.50;99.90
15143;DHT22;7672;50.834;6.286;2022-09-06T06:46:37;23.50;99.90
15143;DHT22;7672;50.834;6.286;2022-09-06T06:49:04;23.90;99.90
15143;DHT22;7672;50.834;6.286;2022-09-06T06:51:34;23.80;99.90
15143;DHT22;7672;50.834;6.286;2022-09-06T06:54:05;24.10;99.90
15143;DHT22;7672;50.834;6.286;2022-09-06T06:56:34;24.50;99.90
15143;DHT22;7672;50.834;6.286;2022-09-06T06:59:06;25.00;99.90
15143;DHT22;7672;50.834;6.286;2022-09-06T07:01:34;25.30;99.90
15143;DHT22;7672;50.834;6.286;2022-09-06T07:04:02;25.40;99.90
15143;DHT22;7672;50.834;6.286;2022-09-06T07:06:29;25.80;99.90
15143;DHT22;7672;50.834;6.286;2022-09-06T07:09:17;26.50;99.90
15143;DHT22;7672;50.834;6.286;2022-09-06T07:11:46;26.70;99.90
15143;DHT22;7672;50.834;6.286;2022-09-06T07:14:16;27.00;99.90
15143;DHT22;7672;50.834;6.286;2022-09-06T07:16:44;27.40;99.90
15143;DHT22;7672;50.834;6.286;2022-09-06T07:19:11;27.80;99.90
15143;DHT22;7672;50.834;6.286;2022-09-06T07:21:58;28.40;99.90
15143;DHT22;7672;50.834;6.286;2022-09-06T07:24:31;28.90;99.90
15143;DHT22;7672;50.834;6.286;2022-09-06T07:26:58;29.20;99.90
15143;DHT22;7672;50.834;6.286;2022-09-06T07:29:44;29.50;99.90
15143;DHT22;7672;50.834;6.286;2022-09-06T07:32:11;30.10;99.90
15143;DHT22;7672;50.834;6.286;2022-09-06T07:34:38;30.30;99.90
15143;DHT22;7672;50.834;6.286;2022-09-06T07:37:05;30.60;99.90
15143;DHT22;7672;50.834;6.286;2022-09-06T07:39:32;30.90;99.90
15143;DHT22;7672;50.834;6.286;2022-09-06T07:41:59;31.30;99.90
15143;DHT22;7672;50.834;6.286;2022-09-06T07:44:26;31.60;99.90
15143;DHT22;7672;50.834;6.286;2022-09-06T07:46:54;32.00;99.90
15143;DHT22;7672;50.834;6.286;2022-09-06T07:49:41;32.40;99.90
15143;DHT22;7672;50.834;6.286;2022-09-06T07:52:28;32.70;99.90
15143;DHT22;7672;50.834;6.286;2022-09-06T07:55:15;33.20;99.90
15143;DHT22;7672;50.834;6.286;2022-09-06T07:57:42;33.50;99.90
15143;DHT22;7672;50.834;6.286;2022-09-06T08:00:09;33.80;99.90
15143;DHT22;7672;50.834;6.286;2022-09-06T08:02:38;34.00;99.90
15143;DHT22;7672;50.834;6.286;2022-09-06T08:05:06;34.30;99.90
15143;DHT22;7672;50.834;6.286;2022-09-06T08:07:53;34.50;99.90
15143;DHT22;7672;50.834;6.286;2022-09-06T08:10:40;34.60;99.90
15143;DHT22;7672;50.834;6.286;2022-09-06T08:13:07;34.90;99.90
15143;DHT22;7672;50.834;6.286;2022-09-06T08:15:34;35.10;99.90
15143;DHT22;7672;50.834;6.286;2022-09-06T08:18:01;35.20;98.70
15143;DHT22;7672;50.834;6.286;2022-09-06T08:20:28;35.30;98.30
15143;DHT22;7672;50.834;6.286;2022-09-06T08:22:54;35.50;97.70
15143;DHT22;7672;50.834;6.286;2022-09-06T08:25:21;35.60;97.70
15143;DHT22;7672;50.834;6.286;2022-09-06T08:27:48;35.80;96.60
15143;DHT22;7672;50.834;6.286;2022-09-06T08:30:15;35.90;97.30
15143;DHT22;7672;50.834;6.286;2022-09-06T08:32:42;36.10;96.60
15143;DHT22;7672;50.834;6.286;2022-09-06T08:35:09;36.40;96.40
15143;DHT22;7672;50.834;6.286;2022-09-06T08:37:36;36.60;96.90
15143;DHT22;7672;50.834;6.286;2022-09-06T08:40:03;36.80;96.60
15143;DHT22;7672;50.834;6.286;2022-09-06T08:42:30;37.10;94.80
15143;DHT22;7672;50.834;6.286;2022-09-06T08:44:57;37.40;94.60
15143;DHT22;7672;50.834;6.286;2022-09-06T08:47:26;37.70;93.90
15143;DHT22;7672;50.834;6.286;2022-09-06T08:50:01;37.90;92.10
15143;DHT22;7672;50.834;6.286;2022-09-06T08:55:51;38.60;91.70
15143;DHT22;7672;50.834;6.286;2022-09-06T09:01:23;39.20;91.20
15143;DHT22;7672;50.834;6.286;2022-09-06T09:04:01;39.60;90.60
15143;DHT22;7672;50.834;6.286;2022-09-06T09:06:31;39.90;90.10
15143;DHT22;7672;50.834;6.286;2022-09-06T09:09:07;40.30;87.60
15143;DHT22;7672;50.834;6.286;2022-09-06T09:11:42;40.60;85.10
15143;DHT22;7672;50.834;6.286;2022-09-06T09:14:34;40.90;85.20
15143;DHT22;7672;50.834;6.286;2022-09-06T09:17:16;41.20;82.30
15143;DHT22;7672;50.834;6.286;2022-09-06T09:19:50;41.50;82.20
15143;DHT22;7672;50.834;6.286;2022-09-06T09:22:18;41.70;80.70
15143;DHT22;7672;50.834;6.286;2022-09-06T09:24:47;41.90;80.00
15143;DHT22;7672;50.834;6.286;2022-09-06T09:27:20;42.20;78.20
15143;DHT22;7672;50.834;6.286;2022-09-06T09:32:42;42.70;76.50
15143;DHT22;7672;50.834;6.286;2022-09-06T09:35:29;43.00;75.20
15143;DHT22;7672;50.834;6.286;2022-09-06T09:38:11;43.20;75.10
15143;DHT22;7672;50.834;6.286;2022-09-06T09:40:50;43.50;73.40
15143;DHT22;7672;50.834;6.286;2022-09-06T09:43:32;43.70;71.80
15143;DHT22;7672;50.834;6.286;2022-09-06T09:46:16;43.90;72.00
15143;DHT22;7672;50.834;6.286;2022-09-06T09:49:27;44.10;70.60
15143;DHT22;7672;50.834;6.286;2022-09-06T09:52:13;44.20;70.60
15143;DHT22;7672;50.834;6.286;2022-09-06T09:54:44;44.30;69.30
15143;DHT22;7672;50.834;6.286;2022-09-06T09:57:18;44.30;67.50
15143;DHT22;7672;50.834;6.286;2022-09-06T09:59:52;44.30;66.90
15143;DHT22;7672;50.834;6.286;2022-09-06T10:07:49;44.50;65.00
15143;DHT22;7672;50.834;6.286;2022-09-06T10:10:38;44.60;64.70
15143;DHT22;7672;50.834;6.286;2022-09-06T10:13:22;44.70;65.80
15143;DHT22;7672;50.834;6.286;2022-09-06T10:15:58;44.70;65.30
15143;DHT22;7672;50.834;6.286;2022-09-06T10:18:40;44.70;65.30
15143;DHT22;7672;50.834;6.286;2022-09-06T10:21:14;44.70;65.00
15143;DHT22;7672;50.834;6.286;2022-09-06T10:24:23;44.60;64.30
15143;DHT22;7672;50.834;6.286;2022-09-06T10:27:22;44.60;65.00
15143;DHT22;7672;50.834;6.286;2022-09-06T10:30:05;44.70;63.30
15143;DHT22;7672;50.834;6.286;2022-09-06T10:35:39;44.80;63.10
15143;DHT22;7672;50.834;6.286;2022-09-06T10:38:29;44.80;62.80
15143;DHT22;7672;50.834;6.286;2022-09-06T10:41:23;44.80;62.30
15143;DHT22;7672;50.834;6.286;2022-09-06T10:44:11;45.00;63.00
15143;DHT22;7672;50.834;6.286;2022-09-06T10:47:05;45.00;61.90
15143;DHT22;7672;50.834;6.286;2022-09-06T10:49:37;45.20;60.60
15143;DHT22;7672;50.834;6.286;2022-09-06T10:52:12;45.20;60.10
15143;DHT22;7672;50.834;6.286;2022-09-06T10:54:44;45.20;59.40
15143;DHT22;7672;50.834;6.286;2022-09-06T10:57:40;45.30;60.30
15143;DHT22;7672;50.834;6.286;2022-09-06T11:00:43;45.30;60.20
15143;DHT22;7672;50.834;6.286;2022-09-06T11:06:21;45.40;59.30
15143;DHT22;7672;50.834;6.286;2022-09-06T11:09:14;45.40;58.70
15143;DHT22;7672;50.834;6.286;2022-09-06T11:11:48;45.40;57.30
15143;DHT22;7672;50.834;6.286;2022-09-06T11:14:27;45.40;57.00
15143;DHT22;7672;50.834;6.286;2022-09-06T11:17:08;45.40;58.00
15143;DHT22;7672;50.834;6.286;2022-09-06T11:22:39;45.20;56.10
15143;DHT22;7672;50.834;6.286;2022-09-06T11:25:37;45.20;56.60
15143;DHT22;7672;50.834;6.286;2022-09-06T11:28:38;45.10;55.80
15143;DHT22;7672;50.834;6.286;2022-09-06T11:31:24;45.10;54.10
15143;DHT22;7672;50.834;6.286;2022-09-06T11:36:51;44.70;54.10
15143;DHT22;7672;50.834;6.286;2022-09-06T11:39:31;44.60;54.50
15143;DHT22;7672;50.834;6.286;2022-09-06T11:47:45;44.10;54.20
15143;DHT22;7672;50.834;6.286;2022-09-06T11:52:52;43.70;54.70
15143;DHT22;7672;50.834;6.286;2022-09-06T11:55:37;43.60;55.60
15143;DHT22;7672;50.834;6.286;2022-09-06T11:58:19;43.30;55.40
15143;DHT22;7672;50.834;6.286;2022-09-06T12:06:36;42.80;54.20
15143;DHT22;7672;50.834;6.286;2022-09-06T12:09:28;42.60;54.50
15143;DHT22;7672;50.834;6.286;2022-09-06T12:11:56;42.30;54.60
15143;DHT22;7672;50.834;6.286;2022-09-06T12:19:58;41.90;56.70
15143;DHT22;7672;50.834;6.286;2022-09-06T12:28:11;41.30;55.80
15143;DHT22;7672;50.834;6.286;2022-09-06T12:30:50;41.20;55.20
15143;DHT22;7672;50.834;6.286;2022-09-06T12:33:28;40.90;56.40
15143;DHT22;7672;50.834;6.286;2022-09-06T12:36:17;40.80;55.10
15143;DHT22;7672;50.834;6.286;2022-09-06T12:39:00;40.60;55.90
15143;DHT22;7672;50.834;6.286;2022-09-06T12:41:36;40.40;55.60
15143;DHT22;7672;50.834;6.286;2022-09-06T12:44:10;40.30;56.30
15143;DHT22;7672;50.834;6.286;2022-09-06T12:46:53;40.10;56.60
15143;DHT22;7672;50.834;6.286;2022-09-06T12:49:21;39.90;56.10
15143;DHT22;7672;50.834;6.286;2022-09-06T12:51:49;39.80;56.50
15143;DHT22;7672;50.834;6.286;2022-09-06T12:54:20;39.60;56.10
15143;DHT22;7672;50.834;6.286;2022-09-06T12:56:57;39.40;56.90
15143;DHT22;7672;50.834;6.286;2022-09-06T12:59:37;39.30;56.80
15143;DHT22;7672;50.834;6.286;2022-09-06T13:02:16;39.10;56.10
15143;DHT22;7672;50.834;6.286;2022-09-06T13:05:09;38.90;56.10
15143;DHT22;7672;50.834;6.286;2022-09-06T13:07:41;38.70;55.90
15143;DHT22;7672;50.834;6.286;2022-09-06T13:10:14;38.70;55.60
15143;DHT22;7672;50.834;6.286;2022-09-06T13:12:45;38.50;56.10
15143;DHT22;7672;50.834;6.286;2022-09-06T13:23:43;38.10;57.30
15143;DHT22;7672;50.834;6.286;2022-09-06T13:26:11;38.00;57.30
15143;DHT22;7672;50.834;6.286;2022-09-06T13:28:39;37.90;57.30
15143;DHT22;7672;50.834;6.286;2022-09-06T13:31:09;37.90;57.10
15143;DHT22;7672;50.834;6.286;2022-09-06T13:33:55;37.80;57.20
15143;DHT22;7672;50.834;6.286;2022-09-06T13:36:26;37.70;57.00
15143;DHT22;7672;50.834;6.286;2022-09-06T13:38:57;37.70;56.90
15143;DHT22;7672;50.834;6.286;2022-09-06T13:43:58;37.60;56.00
15143;DHT22;7672;50.834;6.286;2022-09-06T13:46:25;37.50;56.20
15143;DHT22;7672;50.834;6.286;2022-09-06T13:48:53;37.30;56.20
15143;DHT22;7672;50.834;6.286;2022-09-06T13:51:22;37.20;56.50
15143;DHT22;7672;50.834;6.286;2022-09-06T13:53:49;37.10;56.20
15143;DHT22;7672;50.834;6.286;2022-09-06T13:56:16;37.00;56.30
15143;DHT22;7672;50.834;6.286;2022-09-06T13:58:43;37.00;56.30
15143;DHT22;7672;50.834;6.286;2022-09-06T14:01:11;37.00;56.20
15143;DHT22;7672;50.834;6.286;2022-09-06T14:03:40;36.90;56.20
15143;DHT22;7672;50.834;6.286;2022-09-06T14:06:08;36.80;56.20
15143;DHT22;7672;50.834;6.286;2022-09-06T14:08:36;36.70;55.90
15143;DHT22;7672;50.834;6.286;2022-09-06T14:11:26;36.60;56.00
15143;DHT22;7672;50.834;6.286;2022-09-06T14:13:53;36.50;55.70
15143;DHT22;7672;50.834;6.286;2022-09-06T14:16:20;36.30;56.20
15143;DHT22;7672;50.834;6.286;2022-09-06T14:18:47;36.10;56.00
15143;DHT22;7672;50.834;6.286;2022-09-06T14:21:14;35.80;55.50
15143;DHT22;7672;50.834;6.286;2022-09-06T14:23:42;35.60;55.70
15143;DHT22;7672;50.834;6.286;2022-09-06T14:26:08;35.40;56.50
15143;DHT22;7672;50.834;6.286;2022-09-06T14:28:36;35.10;56.70
15143;DHT22;7672;50.834;6.286;2022-09-06T14:31:14;34.90;56.60
15143;DHT22;7672;50.834;6.286;2022-09-06T14:33:42;34.70;57.00
15143;DHT22;7672;50.834;6.286;2022-09-06T14:36:12;34.60;57.00
15143;DHT22;7672;50.834;6.286;2022-09-06T14:38:41;34.40;57.40
15143;DHT22;7672;50.834;6.286;2022-09-06T14:41:10;34.30;57.30
15143;DHT22;7672;50.834;6.286;2022-09-06T14:43:42;34.10;58.10
15143;DHT22;7672;50.834;6.286;2022-09-06T14:46:12;34.00;58.20
15143;DHT22;7672;50.834;6.286;2022-09-06T14:48:41;34.00;58.00
15143;DHT22;7672;50.834;6.286;2022-09-06T14:53:49;33.90;57.90
15143;DHT22;7672;50.834;6.286;2022-09-06T14:56:19;33.80;58.20
15143;DHT22;7672;50.834;6.286;2022-09-06T14:58:46;33.80;58.10
15143;DHT22;7672;50.834;6.286;2022-09-06T15:01:14;33.70;58.30
15143;DHT22;7672;50.834;6.286;2022-09-06T15:03:43;33.60;58.50
15143;DHT22;7672;50.834;6.286;2022-09-06T15:06:14;33.50;58.60
15143;DHT22;7672;50.834;6.286;2022-09-06T15:08:42;33.40;58.00
15143;DHT22;7672;50.834;6.286;2022-09-06T15:11:10;33.40;58.40
15143;DHT22;7672;50.834;6.286;2022-09-06T15:13:39;33.50;58.70
15143;DHT22;7672;50.834;6.286;2022-09-06T15:16:07;33.40;58.20
15143;DHT22;7672;50.834;6.286;2022-09-06T15:18:35;33.30;58.40
15143;DHT22;7672;50.834;6.286;2022-09-06T15:21:14;33.20;58.80
15143;DHT22;7672;50.834;6.286;2022-09-06T15:23:42;33.10;58.80
15143;DHT22;7672;50.834;6.286;2022-09-06T15:26:11;33.10;59.90
15143;DHT22;7672;50.834;6.286;2022-09-06T15:28:40;33.00;59.40
15143;DHT22;7672;50.834;6.286;2022-09-06T15:31:12;33.00;59.60
15143;DHT22;7672;50.834;6.286;2022-09-06T15:33:40;33.00;59.70
15143;DHT22;7672;50.834;6.286;2022-09-06T15:36:08;33.00;59.70
15143;DHT22;7672;50.834;6.286;2022-09-06T15:38:39;32.90;60.30
15143;DHT22;7672;50.834;6.286;2022-09-06T15:41:24;32.90;59.40
15143;DHT22;7672;50.834;6.286;2022-09-06T15:43:55;32.80;59.60
15143;DHT22;7672;50.834;6.286;2022-09-06T15:49:05;32.70;59.30
15143;DHT22;7672;50.834;6.286;2022-09-06T15:51:36;32.70;60.00
15143;DHT22;7672;50.834;6.286;2022-09-06T15:54:05;32.70;60.50
15143;DHT22;7672;50.834;6.286;2022-09-06T15:56:33;32.70;59.50
15143;DHT22;7672;50.834;6.286;2022-09-06T15:59:00;32.70;60.30
15143;DHT22;7672;50.834;6.286;2022-09-06T16:01:27;32.70;60.40
15143;DHT22;7672;50.834;6.286;2022-09-06T16:03:56;32.60;59.70
15143;DHT22;7672;50.834;6.286;2022-09-06T16:06:31;32.60;59.50
15143;DHT22;7672;50.834;6.286;2022-09-06T16:09:09;32.60;60.10
15143;DHT22;7672;50.834;6.286;2022-09-06T16:11:40;32.50;59.30
15143;DHT22;7672;50.834;6.286;2022-09-06T16:14:10;32.40;59.80
15143;DHT22;7672;50.834;6.286;2022-09-06T16:16:39;32.40;60.50
15143;DHT22;7672;50.834;6.286;2022-09-06T16:19:08;32.40;61.00
15143;DHT22;7672;50.834;6.286;2022-09-06T16:21:39;32.30;60.40
15143;DHT22;7672;50.834;6.286;2022-09-06T16:24:09;32.30;61.20
15143;DHT22;7672;50.834;6.286;2022-09-06T16:26:41;32.20;61.20
15143;DHT22;7672;50.834;6.286;2022-09-06T16:29:11;32.10;60.90
15143;DHT22;7672;50.834;6.286;2022-09-06T16:31:39;32.10;61.40
15143;DHT22;7672;50.834;6.286;2022-09-06T16:34:08;32.00;62.10
15143;DHT22;7672;50.834;6.286;2022-09-06T16:36:36;32.00;62.10
15143;DHT22;7672;50.834;6.286;2022-09-06T16:39:03;31.90;62.30
15143;DHT22;7672;50.834;6.286;2022-09-06T16:41:39;31.90;62.90
15143;DHT22;7672;50.834;6.286;2022-09-06T16:44:09;31.80;62.80
15143;DHT22;7672;50.834;6.286;2022-09-06T16:46:44;31.70;62.70
15143;DHT22;7672;50.834;6.286;2022-09-06T16:49:12;31.70;63.10
15143;DHT22;7672;50.834;6.286;2022-09-06T16:51:42;31.60;63.80
15143;DHT22;7672;50.834;6.286;2022-09-06T16:54:09;31.60;63.80
15143;DHT22;7672;50.834;6.286;2022-09-06T16:56:40;31.60;64.40
15143;DHT22;7672;50.834;6.286;2022-09-06T16:59:09;31.60;63.70
15143;DHT22;7672;50.834;6.286;2022-09-06T17:01:38;31.50;64.10
15143;DHT22;7672;50.834;6.286;2022-09-06T17:04:09;31.50;64.00
15143;DHT22;7672;50.834;6.286;2022-09-06T17:06:38;31.50;64.00
15143;DHT22;7672;50.834;6.286;2022-09-06T17:09:17;31.50;64.60
15143;DHT22;7672;50.834;6.286;2022-09-06T17:11:46;31.40;64.00
15143;DHT22;7672;50.834;6.286;2022-09-06T17:14:17;31.40;63.60
15143;DHT22;7672;50.834;6.286;2022-09-06T17:16:45;31.40;63.80
15143;DHT22;7672;50.834;6.286;2022-09-06T17:19:38;31.20;64.80
15143;DHT22;7672;50.834;6.286;2022-09-06T17:22:13;31.30;65.40
15143;DHT22;7672;50.834;6.286;2022-09-06T17:24:41;31.20;66.40
15143;DHT22;7672;50.834;6.286;2022-09-06T17:27:09;31.20;66.00
15143;DHT22;7672;50.834;6.286;2022-09-06T17:29:36;31.10;67.00
15143;DHT22;7672;50.834;6.286;2022-09-06T17:32:08;31.10;67.90
15143;DHT22;7672;50.834;6.286;2022-09-06T17:34:37;31.00;67.90
15143;DHT22;7672;50.834;6.286;2022-09-06T17:37:14;30.90;66.60
15143;DHT22;7672;50.834;6.286;2022-09-06T17:39:45;30.80;66.80
15143;DHT22;7672;50.834;6.286;2022-09-06T17:42:25;30.70;67.20
15143;DHT22;7672;50.834;6.286;2022-09-06T17:44:53;30.60;67.80
15143;DHT22;7672;50.834;6.286;2022-09-06T17:47:20;30.60;68.30
15143;DHT22;7672;50.834;6.286;2022-09-06T17:49:50;30.50;69.20
15143;DHT22;7672;50.834;6.286;2022-09-06T17:52:25;30.40;70.90
15143;DHT22;7672;50.834;6.286;2022-09-06T17:54:52;30.40;69.60
15143;DHT22;7672;50.834;6.286;2022-09-06T17:57:23;30.30;68.80
15143;DHT22;7672;50.834;6.286;2022-09-06T17:59:55;30.20;68.50
15143;DHT22;7672;50.834;6.286;2022-09-06T18:02:40;30.10;68.50
15143;DHT22;7672;50.834;6.286;2022-09-06T18:05:08;30.10;70.50
15143;DHT22;7672;50.834;6.286;2022-09-06T18:07:54;30.00;69.60